Time;durP1;ratioP1;P1;durP2;ratioP2;P2;SDS_P1;SDS_P2;PMS_P1;PMS_P2;Temp;Humidity;BMP_temperature;BMP_pressure;BME280_temperature;BME280_humidity;BME280_pressure;Samples;Min_cycle;Max_cycle;Signal;HPM_P1;HPM_P2
2022/12/24 00:01:26;;;;;;;22.23;14.13;;;8.70;89.50;;;;;;5115720;27;20114;-73
2022/12/24 00:03:51;;;;;;;20.45;13.65;;;8.70;89.50;;;;;;5100476;27;20043;-72
2022/12/24 00:06:22;;;;;;;17.50;12.88;;;8.70;89.50;;;;;;5120012;27;20461;-73
2022/12/24 00:08:49;;;;;;;19.25;13.18;;;8.70;89.50;;;;;;5118380;27;20110;-77
2022/12/24 00:11:16;;;;;;;18.83;12.90;;;8.70;89.50;;;;;;5117920;27;20035;-72
2022/12/24 00:13:42;;;;;;;20.38;12.77;;;8.70;89.50;;;;;;5116948;27;20050;-72
2022/12/24 00:16:07;;;;;;;24.55;14.25;;;8.70;89.40;;;;;;5122861;27;20045;-73
2022/12/24 00:18:33;;;;;;;23.95;15.02;;;8.70;89.40;;;;;;5122646;27;20130;-73
2022/12/24 00:21:00;;;;;;;24.90;14.73;;;8.70;89.40;;;;;;5118406;27;20549;-73
2022/12/24 00:23:26;;;;;;;24.25;15.23;;;8.70;89.40;;;;;;5118923;27;20039;-72
2022/12/24 00:25:52;;;;;;;24.67;14.70;;;8.70;89.70;;;;;;5116634;27;20042;-72
2022/12/24 00:28:17;;;;;;;25.75;14.18;;;8.70;89.30;;;;;;5119289;27;20501;-74
2022/12/24 00:30:43;;;;;;;21.83;14.18;;;8.70;89.30;;;;;;5119207;27;20032;-72
2022/12/24 00:33:09;;;;;;;22.75;13.45;;;8.70;89.30;;;;;;5117261;27;20039;-71
2022/12/24 00:35:36;;;;;;;23.90;15.52;;;8.80;89.40;;;;;;5117816;27;20047;-72
2022/12/24 00:38:02;;;;;;;28.35;16.52;;;8.80;89.30;;;;;;5118304;27;20038;-72
2022/12/24 00:40:29;;;;;;;22.38;14.93;;;8.80;89.30;;;;;;5116459;27;20482;-72
2022/12/24 00:42:55;;;;;;;19.58;14.90;;;8.80;89.30;;;;;;5119376;27;20077;-72
2022/12/24 00:45:21;;;;;;;23.60;15.10;;;8.80;89.30;;;;;;5117474;27;20398;-71
2022/12/24 00:47:46;;;;;;;23.17;15.48;;;8.80;89.30;;;;;;5100050;27;20036;-71
2022/12/24 00:50:12;;;;;;;25.65;15.27;;;8.80;89.30;;;;;;5119051;27;20375;-71
2022/12/24 00:52:38;;;;;;;24.90;16.17;;;8.80;89.20;;;;;;5117293;27;20063;-72
2022/12/24 00:55:04;;;;;;;27.92;15.65;;;8.80;89.60;;;;;;5118626;27;20690;-72
2022/12/24 00:57:29;;;;;;;30.40;16.90;;;8.80;89.20;;;;;;5099817;27;20045;-71
2022/12/24 00:59:55;;;;;;;21.98;14.73;;;8.80;89.20;;;;;;5117783;27;20035;-71
2022/12/24 01:02:21;;;;;;;24.25;15.43;;;8.80;89.20;;;;;;5116878;27;20031;-71
2022/12/24 01:07:30;;;;;;;21.63;14.60;;;8.80;89.20;;;;;;5133764;27;20127;-71
2022/12/24 01:09:56;;;;;;;21.80;14.30;;;8.80;89.20;;;;;;5113669;27;20069;-71
2022/12/24 01:12:22;;;;;;;19.92;13.05;;;8.80;89.20;;;;;;5097886;27;20089;-71
2022/12/24 01:14:48;;;;;;;19.15;12.70;;;8.80;89.20;;;;;;5103206;27;20043;-72
2022/12/24 01:17:14;;;;;;;19.92;12.27;;;8.80;89.20;;;;;;5119129;27;20046;-72
2022/12/24 01:19:39;;;;;;;17.73;11.85;;;8.80;89.20;;;;;;5118901;27;20125;-71
2022/12/24 01:22:05;;;;;;;20.15;12.63;;;8.90;89.30;;;;;;5098461;27;20146;-71
2022/12/24 01:24:31;;;;;;;16.65;10.80;;;8.90;89.30;;;;;;5120040;27;20046;-71
2022/12/24 01:26:56;;;;;;;15.98;10.75;;;8.90;89.30;;;;;;5099388;27;20070;-71
2022/12/24 01:29:22;;;;;;;18.38;11.65;;;8.90;89.30;;;;;;5099058;27;20415;-71
2022/12/24 01:31:48;;;;;;;16.88;11.02;;;8.90;89.30;;;;;;5081542;27;20049;-71
2022/12/24 01:34:13;;;;;;;15.82;10.05;;;8.90;89.30;;;;;;5115786;27;20051;-71
2022/12/24 01:36:39;;;;;;;14.77;10.13;;;8.90;89.30;;;;;;5118341;27;20100;-71
2022/12/24 01:39:05;;;;;;;18.00;10.18;;;8.90;89.30;;;;;;5104130;27;20504;-71
2022/12/24 01:44:30;;;;;;;18.05;9.00;;;9.00;89.30;;;;;;5116649;27;20050;-71
2022/12/24 01:47:29;;;;;;;15.95;9.20;;;9.00;89.40;;;;;;5126431;27;20462;-71
2022/12/24 01:50:08;;;;;;;17.85;9.60;;;9.00;89.40;;;;;;5074151;27;20076;-71
2022/12/24 01:52:34;;;;;;;19.15;9.77;;;9.00;89.40;;;;;;5099381;27;20053;-71
2022/12/24 01:55:09;;;;;;;17.25;9.27;;;9.00;89.40;;;;;;5120601;27;20035;-71
2022/12/24 01:57:46;;;;;;;;;;;9.00;89.40;;;;;;5102621;27;20390;-71
2022/12/24 02:00:14;;;;;;;19.20;9.27;;;9.00;89.20;;;;;;5116219;27;19922;-71
2022/12/24 02:02:43;;;;;;;19.60;9.48;;;9.00;89.50;;;;;;5118035;27;20074;-71
2022/12/24 02:05:34;;;;;;;13.82;8.10;;;9.00;89.40;;;;;;5106229;27;20046;-71
2022/12/24 02:08:03;;;;;;;14.70;7.88;;;9.00;89.50;;;;;;5130213;27;20502;-71
2022/12/24 02:10:28;;;;;;;13.15;7.63;;;9.00;89.50;;;;;;5116492;27;20126;-71
2022/12/24 02:12:56;;;;;;;17.25;7.55;;;9.10;89.50;;;;;;5115052;27;20183;-71
2022/12/24 02:15:22;;;;;;;15.63;6.95;;;9.10;89.50;;;;;;5115112;27;20122;-71
2022/12/24 02:18:03;;;;;;;18.85;6.25;;;9.10;89.60;;;;;;5102682;27;20039;-71
2022/12/24 02:20:59;;;;;;;25.95;5.82;;;9.10;89.70;;;;;;5113373;27;20125;-71
2022/12/24 02:23:56;;;;;;;24.13;5.53;;;9.10;89.50;;;;;;5114721;27;20375;-71
2022/12/24 02:26:21;;;;;;;30.08;5.20;;;9.10;89.60;;;;;;5114411;27;20463;-71
2022/12/24 02:29:20;;;;;;;30.48;5.03;;;9.10;89.50;;;;;;5097474;27;20042;-71
2022/12/24 02:32:03;;;;;;;29.58;5.80;;;9.10;89.60;;;;;;5119631;27;20039;-71
2022/12/24 02:34:36;;;;;;;19.88;4.57;;;9.10;89.60;;;;;;5110073;28;20100;-71
2022/12/24 02:37:16;;;;;;;32.47;5.35;;;9.10;89.50;;;;;;5111245;28;20081;-71
2022/12/24 02:39:54;;;;;;;34.13;5.63;;;9.10;89.50;;;;;;5111032;28;20039;-71
2022/12/24 02:42:28;;;;;;;30.27;5.57;;;9.10;89.40;;;;;;5110754;28;20071;-71
2022/12/24 02:45:12;;;;;;;36.03;7.50;;;9.10;89.40;;;;;;5110648;28;20089;-71
2022/12/24 02:47:40;;;;;;;29.27;6.05;;;9.10;89.40;;;;;;5110471;28;20533;-71
2022/12/24 02:50:08;;;;;;;32.65;6.35;;;9.10;89.30;;;;;;5110547;28;20055;-71
2022/12/24 02:52:37;;;;;;;39.33;6.22;;;9.10;89.30;;;;;;5110424;28;20044;-71
2022/12/24 02:55:21;;;;;;;36.35;5.95;;;9.10;89.30;;;;;;5110332;28;20606;-71
2022/12/24 02:58:05;;;;;;;30.42;6.95;;;9.10;89.20;;;;;;5110090;28;20035;-71
2022/12/24 03:00:56;;;;;;;28.55;5.65;;;9.10;89.10;;;;;;5109567;28;20047;-71
2022/12/24 03:03:38;;;;;;;23.25;5.35;;;9.10;89.10;;;;;;5108340;28;20039;-71
2022/12/24 03:06:28;;;;;;;27.55;5.85;;;9.10;89.10;;;;;;5107894;28;20082;-71
2022/12/24 03:09:11;;;;;;;37.70;7.28;;;9.20;89.10;;;;;;5108714;28;20031;-71
2022/12/24 03:11:40;;;;;;;39.42;5.43;;;9.10;89.00;;;;;;5110682;28;20036;-71
2022/12/24 03:14:06;;;;;;;33.67;6.30;;;9.20;89.00;;;;;;5110450;28;20567;-71
2022/12/24 03:16:32;;;;;;;31.10;5.95;;;9.10;88.80;;;;;;5109975;28;20035;-71
2022/12/24 03:18:59;;;;;;;29.98;5.88;;;9.20;88.90;;;;;;5110508;28;20051;-71
2022/12/24 03:21:26;;;;;;;35.47;6.07;;;9.20;88.80;;;;;;5110042;28;20048;-71
2022/12/24 03:23:53;;;;;;;32.55;5.50;;;9.20;88.80;;;;;;5110445;28;20115;-71
2022/12/24 03:26:19;;;;;;;28.48;5.80;;;9.20;88.70;;;;;;5109896;28;20126;-71
2022/12/24 03:28:46;;;;;;;31.85;5.57;;;9.20;88.70;;;;;;5110356;28;20035;-71
2022/12/24 03:31:13;;;;;;;33.58;5.60;;;9.20;89.10;;;;;;5110065;28;20031;-71
2022/12/24 03:33:39;;;;;;;37.75;6.70;;;9.20;88.60;;;;;;5093226;28;20066;-71
2022/12/24 03:36:06;;;;;;;27.10;5.57;;;9.20;88.60;;;;;;5109320;28;21635;-71
2022/12/24 03:38:32;;;;;;;32.85;5.97;;;9.20;88.60;;;;;;5107582;28;20039;-70
2022/12/24 03:40:58;;;;;;;30.58;6.18;;;9.20;88.50;;;;;;5092850;28;20040;-70
2022/12/24 03:43:24;;;;;;;37.85;6.75;;;9.20;88.40;;;;;;5110113;28;20104;-71
2022/12/24 03:45:50;;;;;;;29.88;6.30;;;9.20;88.40;;;;;;5109827;28;20040;-71
2022/12/24 03:48:16;;;;;;;22.30;5.20;;;9.20;88.30;;;;;;5110005;28;20027;-71
2022/12/24 03:50:41;;;;;;;27.77;5.32;;;9.20;88.30;;;;;;5110086;28;20035;-70
2022/12/24 03:53:07;;;;;;;28.20;5.68;;;9.20;88.30;;;;;;5109612;28;20066;-71
2022/12/24 03:55:33;;;;;;;33.20;5.57;;;9.20;88.20;;;;;;5110010;28;20391;-71
2022/12/24 03:57:58;;;;;;;35.78;5.45;;;9.20;88.20;;;;;;5075133;28;20051;-71
2022/12/24 04:00:24;;;;;;;32.50;5.70;;;9.20;88.10;;;;;;5110138;28;20036;-71
2022/12/24 04:02:50;;;;;;;28.70;5.28;;;9.20;88.10;;;;;;5109550;28;20051;-71
2022/12/24 04:05:18;;;;;;;28.88;5.35;;;9.20;88.10;;;;;;5107336;28;20043;-70
2022/12/24 04:07:44;;;;;;;34.78;6.18;;;9.20;88.10;;;;;;5092805;28;20428;-70
2022/12/24 04:10:10;;;;;;;34.13;6.60;;;9.20;88.00;;;;;;5109734;28;20035;-71
2022/12/24 04:12:37;;;;;;;30.30;5.72;;;9.20;88.00;;;;;;5109557;28;20522;-70
2022/12/24 04:15:03;;;;;;;35.20;5.28;;;9.20;88.00;;;;;;5109651;28;20042;-70
2022/12/24 04:17:29;;;;;;;31.83;7.00;;;9.20;88.00;;;;;;5109432;28;20043;-71
2022/12/24 04:19:54;;;;;;;32.50;7.22;;;9.20;87.90;;;;;;5092842;28;20031;-71
2022/12/24 04:22:20;;;;;;;28.90;5.65;;;9.20;87.90;;;;;;5109043;28;20092;-71
2022/12/24 04:24:46;;;;;;;23.15;5.10;;;9.20;87.80;;;;;;5092567;28;20040;-70
2022/12/24 04:27:15;;;;;;;37.53;5.80;;;9.20;87.80;;;;;;5108892;28;20039;-70
2022/12/24 04:29:41;;;;;;;27.98;5.32;;;9.20;87.70;;;;;;5109870;28;20074;-71
2022/12/24 04:32:07;;;;;;;33.72;6.35;;;9.20;87.70;;;;;;5109485;28;20067;-71
2022/12/24 04:34:32;;;;;;;34.28;5.57;;;9.10;87.50;;;;;;5109087;28;20130;-70
2022/12/24 04:36:58;;;;;;;23.67;5.22;;;9.10;87.50;;;;;;5092550;28;20126;-71
2022/12/24 04:39:24;;;;;;;35.63;5.75;;;9.10;87.40;;;;;;5109851;28;20043;-71
2022/12/24 04:41:49;;;;;;;29.65;6.32;;;9.10;87.40;;;;;;5092321;28;20732;-71
2022/12/24 04:44:15;;;;;;;32.17;5.68;;;9.10;87.40;;;;;;5109406;28;20046;-71
2022/12/24 04:46:41;;;;;;;36.20;7.47;;;9.10;87.40;;;;;;5093291;28;20070;-70
2022/12/24 04:49:07;;;;;;;30.92;6.45;;;9.10;87.50;;;;;;5113378;28;20056;-70
2022/12/24 04:51:32;;;;;;;36.85;6.35;;;9.10;87.50;;;;;;5096065;28;20054;-70
2022/12/24 04:53:58;;;;;;;27.92;5.30;;;9.10;87.50;;;;;;5111446;28;20449;-70
2022/12/24 04:56:28;;;;;;;34.10;6.07;;;9.10;87.60;;;;;;5096261;28;20035;-70
2022/12/24 04:58:54;;;;;;;36.03;6.00;;;9.10;87.60;;;;;;5129896;27;20491;-71
2022/12/24 05:01:23;;;;;;;28.35;6.32;;;9.10;88.00;;;;;;5112974;28;20550;-71
2022/12/24 05:03:50;;;;;;;30.02;6.10;;;9.10;87.60;;;;;;5095640;28;20032;-70
2022/12/24 05:06:18;;;;;;;35.05;6.68;;;9.10;87.60;;;;;;5096267;28;20105;-71
2022/12/24 05:08:44;;;;;;;31.23;5.80;;;9.10;87.60;;;;;;5112960;28;20085;-71
2022/12/24 05:11:14;;;;;;;29.17;5.50;;;9.00;87.50;;;;;;5113089;28;20039;-71
2022/12/24 05:13:44;;;;;;;34.08;7.22;;;9.10;87.50;;;;;;5110284;28;20036;-71
2022/12/24 05:16:11;;;;;;;32.55;6.53;;;9.10;87.60;;;;;;5095409;28;20050;-71
2022/12/24 05:18:37;;;;;;;32.63;6.18;;;9.10;87.50;;;;;;5112282;28;20043;-71
2022/12/24 05:21:09;;;;;;;32.03;6.93;;;9.00;87.50;;;;;;5110245;28;20031;-71
2022/12/24 05:26:33;;;;;;;34.35;5.75;;;9.00;87.50;;;;;;5111623;28;20050;-71
2022/12/24 05:29:00;;;;;;;27.35;5.57;;;9.00;87.60;;;;;;5114732;27;20035;-70
2022/12/24 05:31:28;;;;;;;37.08;7.20;;;9.00;87.50;;;;;;5095454;28;20035;-71
2022/12/24 05:33:54;;;;;;;37.40;7.07;;;9.00;87.60;;;;;;5111279;28;20122;-71
2022/12/24 05:36:21;;;;;;;38.28;6.95;;;9.00;87.60;;;;;;5111914;28;20139;-71
2022/12/24 05:38:47;;;;;;;27.95;6.20;;;9.00;87.60;;;;;;5094898;28;20031;-71
2022/12/24 05:41:13;;;;;;;25.63;6.38;;;9.00;87.60;;;;;;5112007;28;20032;-72
2022/12/24 05:43:38;;;;;;;33.38;7.40;;;9.00;87.60;;;;;;5094451;28;20051;-71
2022/12/24 05:46:08;;;;;;;23.05;5.47;;;9.00;87.70;;;;;;5111806;28;20039;-71
2022/12/24 05:48:35;;;;;;;31.73;6.05;;;9.00;87.70;;;;;;5111488;28;20040;-71
2022/12/24 05:51:05;;;;;;;24.25;5.82;;;9.00;87.70;;;;;;5077587;28;20036;-71
2022/12/24 05:53:30;;;;;;;30.63;6.03;;;9.00;87.80;;;;;;5111355;28;20106;-71
2022/12/24 05:56:03;;;;;;;31.98;6.45;;;9.00;87.80;;;;;;5110738;28;20497;-71
2022/12/24 05:58:28;;;;;;;31.60;5.93;;;9.10;88.00;;;;;;5111073;28;20065;-71
2022/12/24 06:00:54;;;;;;;30.85;5.90;;;9.00;87.90;;;;;;5111601;28;21814;-71
2022/12/24 06:03:20;;;;;;;38.15;6.68;;;9.00;87.90;;;;;;5093702;28;20039;-71
2022/12/24 06:05:45;;;;;;;29.42;5.47;;;9.10;88.00;;;;;;5111954;28;20167;-71
2022/12/24 06:08:11;;;;;;;32.55;5.90;;;9.10;88.10;;;;;;5094670;28;20632;-71
2022/12/24 06:10:37;;;;;;;29.70;5.88;;;9.10;88.10;;;;;;5094679;28;20483;-71
2022/12/24 06:13:02;;;;;;;32.28;6.05;;;9.10;88.10;;;;;;5094285;28;20202;-71
2022/12/24 06:15:28;;;;;;;32.40;5.75;;;9.10;88.20;;;;;;5111298;28;20058;-71
2022/12/24 06:17:54;;;;;;;30.65;5.55;;;9.10;88.20;;;;;;5082728;28;20075;-71
2022/12/24 06:20:19;;;;;;;36.85;7.82;;;9.10;88.30;;;;;;5111560;28;20446;-71
2022/12/24 06:22:45;;;;;;;31.52;6.53;;;9.10;88.30;;;;;;5111446;28;20380;-71
2022/12/24 06:25:11;;;;;;;31.92;5.28;;;9.10;88.30;;;;;;5109801;28;20067;-71
2022/12/24 06:27:37;;;;;;;31.70;5.95;;;9.20;88.30;;;;;;5094322;28;20040;-71
2022/12/24 06:30:03;;;;;;;38.33;6.38;;;9.20;88.40;;;;;;5110638;28;20031;-71
2022/12/24 06:32:29;;;;;;;33.35;6.95;;;9.20;88.40;;;;;;5094750;28;20617;-71
2022/12/24 06:34:54;;;;;;;24.17;5.47;;;9.20;88.40;;;;;;5116102;27;20058;-71
2022/12/24 06:37:20;;;;;;;27.63;5.60;;;9.20;88.40;;;;;;5099611;27;20092;-71
2022/12/24 06:39:46;;;;;;;34.13;5.97;;;9.20;88.40;;;;;;5115819;27;20522;-71
2022/12/24 06:42:14;;;;;;;30.15;6.03;;;9.20;88.40;;;;;;5099291;27;20464;-71
2022/12/24 06:44:40;;;;;;;33.72;5.70;;;9.20;88.50;;;;;;5113063;27;20039;-71
2022/12/24 06:47:06;;;;;;;30.02;4.85;;;9.20;88.50;;;;;;5114004;27;20038;-71
2022/12/24 06:49:31;;;;;;;28.52;5.50;;;9.20;88.50;;;;;;5114896;27;20039;-71
2022/12/24 06:51:57;;;;;;;27.83;5.75;;;9.20;88.50;;;;;;5117690;27;20076;-71
2022/12/24 06:54:23;;;;;;;26.83;4.78;;;9.20;88.50;;;;;;5117709;27;20471;-71
2022/12/24 06:56:48;;;;;;;28.77;5.68;;;9.20;88.40;;;;;;5097727;27;20096;-71
2022/12/24 06:59:14;;;;;;;31.25;5.15;;;9.20;88.40;;;;;;5114262;27;20094;-71
2022/12/24 07:01:40;;;;;;;33.42;5.95;;;9.30;88.40;;;;;;5113672;27;20035;-71
2022/12/24 07:04:05;;;;;;;31.15;6.03;;;9.20;88.30;;;;;;5097716;27;20135;-71
2022/12/24 07:06:31;;;;;;;27.23;4.65;;;9.30;88.40;;;;;;5097692;27;20043;-71
2022/12/24 07:08:57;;;;;;;31.23;5.15;;;9.30;88.40;;;;;;5114320;27;20063;-71
2022/12/24 07:11:24;;;;;;;31.20;6.22;;;9.30;88.40;;;;;;5095825;27;20169;-71
2022/12/24 07:13:49;;;;;;;24.73;4.65;;;9.30;88.40;;;;;;5096614;27;20039;-71
2022/12/24 07:16:16;;;;;;;29.80;6.07;;;9.20;88.30;;;;;;5116623;27;20390;-71
2022/12/24 07:18:42;;;;;;;32.83;5.78;;;9.30;88.30;;;;;;5113913;27;20066;-71
2022/12/24 07:21:08;;;;;;;38.17;6.15;;;9.20;88.20;;;;;;5114405;27;20131;-71
2022/12/24 07:23:34;;;;;;;30.52;5.28;;;9.30;88.30;;;;;;5096858;27;20122;-71
2022/12/24 07:26:01;;;;;;;27.50;5.20;;;9.30;88.30;;;;;;5115764;27;20352;-71
2022/12/24 07:28:28;;;;;;;34.38;6.35;;;9.30;88.30;;;;;;5097666;27;20035;-71
2022/12/24 07:30:57;;;;;;;26.17;5.47;;;9.30;88.40;;;;;;5113347;28;20114;-74
2022/12/24 07:33:24;;;;;;;30.58;5.07;;;9.30;88.40;;;;;;5108621;28;20198;-74
2022/12/24 07:36:04;;;;;;;26.40;6.90;;;9.30;88.40;;;;;;5109811;28;20043;-74
2022/12/24 07:38:31;;;;;;;27.95;6.38;;;9.30;88.40;;;;;;5108954;28;20160;-75
2022/12/24 07:40:57;;;;;;;29.35;6.65;;;9.30;88.40;;;;;;5109387;28;20036;-75
2022/12/24 07:43:23;;;;;;;29.77;5.85;;;9.30;88.50;;;;;;5093821;28;20425;-75
2022/12/24 07:45:49;;;;;;;37.60;5.82;;;9.30;88.50;;;;;;5110270;28;20123;-75
2022/12/24 07:48:15;;;;;;;28.83;5.88;;;9.30;88.50;;;;;;5093615;28;20115;-76
2022/12/24 07:50:41;;;;;;;28.45;5.75;;;9.30;88.50;;;;;;5110225;28;20100;-75
2022/12/24 07:53:07;;;;;;;28.70;5.40;;;9.30;88.50;;;;;;5110740;28;20031;-75
2022/12/24 07:55:34;;;;;;;33.83;5.50;;;9.30;88.50;;;;;;5093346;28;20039;-75
2022/12/24 07:57:59;;;;;;;27.17;5.45;;;9.30;88.60;;;;;;5110495;28;20051;-75
2022/12/24 08:00:25;;;;;;;32.83;6.45;;;9.30;88.50;;;;;;5093760;28;20122;-75
2022/12/24 08:02:51;;;;;;;38.75;6.70;;;9.30;88.50;;;;;;5093615;28;20048;-75
2022/12/24 08:05:16;;;;;;;30.50;5.75;;;9.30;88.50;;;;;;5093131;28;20042;-75
2022/12/24 08:07:42;;;;;;;31.42;6.13;;;9.30;88.50;;;;;;5110505;28;20035;-76
2022/12/24 08:10:08;;;;;;;28.50;5.35;;;9.30;88.60;;;;;;5093572;28;20041;-76
2022/12/24 08:12:34;;;;;;;39.22;6.93;;;9.30;88.60;;;;;;5093940;28;20059;-75
2022/12/24 08:14:59;;;;;;;45.03;5.97;;;9.30;88.60;;;;;;5110321;28;20108;-75
2022/12/24 08:17:25;;;;;;;28.58;5.22;;;9.40;88.70;;;;;;5110862;28;20040;-75
2022/12/24 08:19:51;;;;;;;33.17;6.30;;;9.40;88.70;;;;;;5110568;28;20039;-75
2022/12/24 08:22:16;;;;;;;30.98;5.82;;;9.40;88.70;;;;;;5112292;28;20540;-75
2022/12/24 08:24:42;;;;;;;31.05;5.53;;;9.40;88.70;;;;;;5114083;28;20052;-75
2022/12/24 08:27:08;;;;;;;35.88;5.95;;;9.40;88.80;;;;;;5125309;27;20039;-75
2022/12/24 08:29:33;;;;;;;32.63;6.15;;;9.40;88.80;;;;;;5080287;28;20492;-75
2022/12/24 08:31:59;;;;;;;30.65;5.45;;;9.40;88.80;;;;;;5097728;28;20047;-75
2022/12/24 08:34:25;;;;;;;33.40;6.43;;;9.40;88.80;;;;;;5097797;28;20043;-76
2022/12/24 08:36:50;;;;;;;24.23;6.22;;;9.40;88.80;;;;;;5114430;28;20039;-76
2022/12/24 08:39:16;;;;;;;32.65;6.35;;;9.40;88.80;;;;;;5096818;28;20039;-76
2022/12/24 08:41:42;;;;;;;34.67;6.45;;;9.40;88.80;;;;;;5113445;28;20034;-76
2022/12/24 08:44:07;;;;;;;40.13;6.97;;;9.40;88.80;;;;;;5113301;28;20112;-76
2022/12/24 08:46:33;;;;;;;36.72;6.80;;;9.50;88.90;;;;;;5112430;28;20040;-76
2022/12/24 08:48:59;;;;;;;23.42;4.70;;;9.50;88.90;;;;;;5097291;28;20040;-76
2022/12/24 08:51:24;;;;;;;32.47;5.88;;;9.50;89.00;;;;;;5096893;28;20040;-76
2022/12/24 08:53:50;;;;;;;29.17;6.18;;;9.50;89.00;;;;;;5095539;28;20435;-76
2022/12/24 08:56:16;;;;;;;41.85;6.80;;;9.50;89.00;;;;;;5113207;28;20042;-76
2022/12/24 08:58:41;;;;;;;40.53;6.63;;;9.50;89.00;;;;;;5112942;28;20167;-71
2022/12/24 09:01:16;;;;;;;32.92;5.72;;;9.50;89.00;;;;;;5115005;28;20077;-69
2022/12/24 09:03:42;;;;;;;37.95;6.53;;;9.50;89.00;;;;;;5114881;28;20071;-69
2022/12/24 09:06:08;;;;;;;36.17;6.25;;;9.50;88.90;;;;;;5097805;28;20047;-70
2022/12/24 09:08:35;;;;;;;33.92;6.50;;;9.50;88.90;;;;;;5097669;28;20119;-70
2022/12/24 09:11:11;;;;;;;43.40;7.90;;;9.60;89.00;;;;;;5114145;28;20454;-69
2022/12/24 09:13:38;;;;;;;38.42;7.55;;;9.60;89.10;;;;;;5114536;28;20143;-71
2022/12/24 09:16:04;;;;;;;35.35;6.57;;;9.60;89.00;;;;;;5097860;28;20094;-70
2022/12/24 09:18:30;;;;;;;41.72;7.63;;;9.60;89.00;;;;;;5097652;28;20495;-71
2022/12/24 09:21:08;;;;;;;38.15;7.97;;;9.60;89.10;;;;;;5097037;28;20069;-71
2022/12/24 09:23:41;;;;;;;43.03;7.68;;;9.60;89.10;;;;;;5113140;28;20035;-70
2022/12/24 09:26:13;;;;;;;32.90;6.25;;;9.60;89.10;;;;;;5094788;28;20431;-71
2022/12/24 09:28:38;;;;;;;38.33;5.43;;;9.60;89.00;;;;;;5113386;28;20089;-71
2022/12/24 09:31:05;;;;;;;30.80;4.40;;;9.60;88.90;;;;;;5114245;28;20032;-71
2022/12/24 09:33:34;;;;;;;22.88;4.78;;;9.60;88.90;;;;;;5112076;28;20044;-71
2022/12/24 09:36:01;;;;;;;26.80;4.85;;;9.60;88.80;;;;;;5113549;28;20130;-77
2022/12/24 09:38:27;;;;;;;25.40;4.60;;;9.60;88.80;;;;;;5096948;28;20051;-76
2022/12/24 09:40:54;;;;;;;34.55;5.47;;;9.60;88.70;;;;;;5112943;28;20031;-76
2022/12/24 09:43:31;;;;;;;33.83;4.78;;;9.60;88.80;;;;;;5096138;28;20126;-76
2022/12/24 09:46:23;;;;;;;21.38;4.30;;;9.60;88.80;;;;;;5112259;28;20047;-76
2022/12/24 09:48:54;;;;;;;33.90;6.57;;;9.70;89.30;;;;;;5113536;28;20044;-76
2022/12/24 09:51:48;;;;;;;33.83;6.40;;;9.60;88.90;;;;;;5113372;28;20032;-76
2022/12/24 09:54:36;;;;;;;28.52;5.43;;;9.70;89.00;;;;;;5102381;28;20040;-76
2022/12/24 09:57:11;;;;;;;31.98;6.07;;;9.70;89.10;;;;;;5112650;28;20085;-76
2022/12/24 09:59:43;;;;;;;37.15;6.63;;;9.70;89.10;;;;;;5113178;28;20062;-76
2022/12/24 10:02:19;;;;;;;31.23;5.07;;;9.70;89.20;;;;;;5112698;28;20134;-76
2022/12/24 10:04:47;;;;;;;35.38;5.35;;;9.70;89.20;;;;;;5112373;28;20043;-76
2022/12/24 10:07:53;;;;;;;27.45;6.82;;;9.70;89.10;;;;;;5112727;28;20127;-75
2022/12/24 10:10:51;;;;;;;32.90;6.57;;;9.80;89.20;;;;;;5109679;28;20040;-75
2022/12/24 10:13:30;;;;;;;24.00;6.30;;;9.80;89.10;;;;;;5093550;28;20054;-75
2022/12/24 10:16:23;;;;;;;30.67;5.28;;;9.70;89.20;;;;;;5112728;28;20048;-76
2022/12/24 10:18:57;;;;;;;21.60;4.07;;;9.80;89.10;;;;;;5093511;28;20089;-76
2022/12/24 10:21:32;;;;;;;;;;;9.80;89.10;;;;;;5104221;28;20080;-75
2022/12/24 10:24:09;;;;;;;24.65;5.30;;;9.80;88.70;;;;;;5110852;28;20358;-76
2022/12/24 10:26:51;;;;;;;24.38;4.18;;;9.80;89.10;;;;;;5095432;28;20078;-76
2022/12/24 10:29:36;;;;;;;27.80;5.20;;;9.80;89.10;;;;;;5111988;28;20031;-76
2022/12/24 10:32:34;;;;;;;32.63;5.78;;;9.80;89.00;;;;;;5103837;28;20042;-75
2022/12/24 10:35:14;;;;;;;26.65;5.30;;;9.80;89.00;;;;;;5091915;28;20060;-76
2022/12/24 10:37:49;;;;;;;34.17;6.00;;;9.80;89.00;;;;;;5091829;28;20043;-76
2022/12/24 10:40:36;;;;;;;31.25;5.90;;;9.80;88.90;;;;;;5091638;28;20031;-76
2022/12/24 10:43:17;;;;;;;37.70;5.82;;;9.90;89.00;;;;;;5074493;28;20052;-76
2022/12/24 10:45:47;;;;;;;35.10;6.50;;;9.80;88.90;;;;;;5090905;28;20044;-75
2022/12/24 10:48:26;;;;;;;32.10;5.85;;;9.90;88.90;;;;;;5091716;28;20151;-76
2022/12/24 10:51:06;;;;;;;34.65;6.95;;;9.90;88.90;;;;;;5091484;28;20116;-76
2022/12/24 10:53:37;;;;;;;40.38;7.65;;;9.90;88.90;;;;;;5073560;28;20083;-75
2022/12/24 10:56:06;;;;;;;36.33;7.32;;;9.90;88.80;;;;;;5089731;28;20036;-75
2022/12/24 10:58:33;;;;;;;37.20;6.35;;;9.90;88.80;;;;;;5074022;28;20031;-76
2022/12/24 11:00:59;;;;;;;37.25;6.20;;;9.90;88.70;;;;;;5091169;28;20043;-76
2022/12/24 11:03:34;;;;;;;35.17;7.25;;;9.90;88.60;;;;;;5089249;28;20035;-76
2022/12/24 11:06:12;;;;;;;31.13;6.40;;;9.90;88.60;;;;;;5091077;28;20040;-76
2022/12/24 11:08:41;;;;;;;24.95;5.85;;;9.90;88.60;;;;;;5091480;28;20039;-76
2022/12/24 11:11:12;;;;;;;33.10;6.43;;;10.00;88.60;;;;;;5073653;28;20071;-75
2022/12/24 11:13:45;;;;;;;27.02;6.40;;;10.00;88.50;;;;;;5091079;28;20036;-75
2022/12/24 11:16:14;;;;;;;35.47;6.57;;;10.00;88.50;;;;;;5090901;28;20032;-72
2022/12/24 11:18:52;;;;;;;39.60;7.40;;;9.90;88.30;;;;;;5091232;28;20044;-74
2022/12/24 11:21:21;;;;;;;29.38;5.28;;;10.00;88.40;;;;;;5074129;28;20036;-77
2022/12/24 11:23:59;;;;;;;23.60;5.18;;;10.00;88.20;;;;;;5090721;28;20044;-76
2022/12/24 11:26:28;;;;;;;27.95;6.03;;;10.00;88.10;;;;;;5073981;28;20044;-75
2022/12/24 11:29:19;;;;;;;35.22;5.85;;;10.00;88.00;;;;;;5090505;28;20107;-76
2022/12/24 11:31:46;;;;;;;25.85;6.50;;;10.00;88.00;;;;;;5090720;28;20036;-75
2022/12/24 11:34:30;;;;;;;35.13;6.45;;;10.00;87.90;;;;;;5108122;27;20517;-76
2022/12/24 11:37:09;;;;;;;25.23;6.15;;;9.90;87.80;;;;;;5097932;27;20046;-77
2022/12/24 11:39:41;;;;;;;27.05;5.78;;;9.90;88.20;;;;;;5099814;27;20035;-73
2022/12/24 11:42:27;;;;;;;26.92;5.18;;;10.00;87.80;;;;;;5099731;27;20451;-73
2022/12/24 11:44:55;;;;;;;26.65;4.95;;;10.00;87.70;;;;;;5100015;28;20039;-75
2022/12/24 11:47:38;;;;;;;22.35;4.72;;;10.00;87.70;;;;;;5115602;27;20031;-73
2022/12/24 11:50:21;;;;;;;28.30;5.68;;;10.00;87.60;;;;;;5102053;28;20039;-72
2022/12/24 11:52:51;;;;;;;28.00;6.15;;;10.00;87.40;;;;;;5101017;28;20558;-70
2022/12/24 11:55:44;;;;;;;17.95;4.22;;;10.00;87.30;;;;;;5085158;28;20047;-70
2022/12/24 11:58:35;;;;;;;26.25;5.05;;;10.00;87.10;;;;;;5105810;27;20043;-70
2022/12/24 12:01:24;;;;;;;29.58;5.65;;;10.00;87.00;;;;;;5103076;27;20070;-70
2022/12/24 12:04:05;;;;;;;29.15;5.43;;;10.00;86.90;;;;;;5105335;27;20043;-70
2022/12/24 12:06:46;;;;;;;19.27;3.80;;;10.00;86.80;;;;;;5102305;27;20051;-70
2022/12/24 12:09:36;;;;;;;24.77;4.85;;;10.00;86.70;;;;;;5102268;27;20047;-70
2022/12/24 12:12:08;;;;;;;24.17;4.45;;;10.00;86.60;;;;;;5104574;27;20047;-70
2022/12/24 12:14:39;;;;;;;24.15;4.68;;;10.00;86.60;;;;;;5107326;27;20157;-71
2022/12/24 12:17:12;;;;;;;24.63;4.70;;;10.00;86.60;;;;;;5104737;27;20118;-71
2022/12/24 12:19:56;;;;;;;26.10;5.25;;;10.00;86.70;;;;;;5106923;27;20472;-71
2022/12/24 12:22:38;;;;;;;27.48;4.45;;;10.00;86.60;;;;;;5106932;27;20107;-71
2022/12/24 12:25:06;;;;;;;23.98;5.97;;;10.00;86.60;;;;;;5105249;27;20082;-72
2022/12/24 12:27:48;;;;;;;19.92;4.25;;;10.10;86.60;;;;;;5089847;27;20047;-72
2022/12/24 12:30:19;;;;;;;26.73;4.78;;;10.10;86.60;;;;;;5104507;27;20044;-71
2022/12/24 12:32:55;;;;;;;24.13;4.45;;;10.10;86.60;;;;;;5108047;27;20063;-71
2022/12/24 12:35:33;;;;;;;34.90;5.70;;;10.10;86.60;;;;;;5119635;27;20046;-71
2022/12/24 12:38:23;;;;;;;22.38;4.65;;;10.10;86.50;;;;;;5121046;27;20460;-71
2022/12/24 12:41:07;;;;;;;22.13;4.72;;;10.20;86.30;;;;;;5113351;27;20063;-71
2022/12/24 12:43:55;;;;;;;28.58;5.53;;;10.10;86.40;;;;;;5122471;27;20049;-70
2022/12/24 12:46:52;;;;;;;22.40;4.63;;;10.10;86.20;;;;;;5120106;27;20505;-71
2022/12/24 12:49:39;;;;;;;23.75;5.75;;;10.10;86.10;;;;;;5121590;27;20030;-71
2022/12/24 12:52:32;;;;;;;28.08;5.40;;;10.20;86.10;;;;;;5119084;27;20034;-71
2022/12/24 12:55:15;;;;;;;25.70;4.80;;;9.90;85.90;;;;;;5122931;27;20049;-67
2022/12/24 12:57:42;;;;;;;24.60;5.25;;;10.20;86.00;;;;;;5122880;27;20137;-68
2022/12/24 13:00:14;;;;;;;23.80;5.07;;;10.20;85.90;;;;;;5108203;27;20473;-68
2022/12/24 13:02:55;;;;;;;20.67;5.22;;;10.20;85.80;;;;;;5125792;27;20046;-67
2022/12/24 13:05:33;;;;;;;20.67;4.03;;;10.20;85.70;;;;;;5120355;27;20035;-67
2022/12/24 13:08:22;;;;;;;19.35;4.45;;;10.20;85.60;;;;;;5119428;27;20039;-67
2022/12/24 13:10:57;;;;;;;21.05;3.90;;;10.20;85.40;;;;;;5120703;27;20042;-68
2022/12/24 13:14:07;;;;;;;17.40;4.03;;;10.20;85.50;;;;;;5129070;27;20111;-68